Time;durP1;ratioP1;P1;durP2;ratioP2;P2;SDS_P1;SDS_P2;PMS_P1;PMS_P2;Temp;Humidity;BMP_temperature;BMP_pressure;BME280_temperature;BME280_humidity;BME280_pressure;Samples;Min_cycle;Max_cycle;Signal;HPM_P1;HPM_P2
2023/10/02 00:01:57;;;;;;;14.48;6.20;;;;;;;;;;6314679;22;20042;-81
2023/10/02 00:04:24;;;;;;;13.02;6.10;;;;;;;;;;6315348;22;20026;-81
2023/10/02 00:07:08;;;;;;;10.05;5.32;;;;;;;;;;6314963;22;20011;-81
2023/10/02 00:09:35;;;;;;;12.35;5.60;;;;;;;;;;6288453;22;20015;-81
2023/10/02 00:12:11;;;;;;;12.32;5.68;;;;;;;;;;6286500;22;20110;-81
2023/10/02 00:14:38;;;;;;;11.57;5.20;;;;;;;;;;6315045;22;20011;-81
2023/10/02 00:17:04;;;;;;;10.95;4.78;;;;;;;;;;6314195;22;20022;-81
2023/10/02 00:19:44;;;;;;;12.07;5.18;;;;;;;;;;6314927;22;20090;-81
2023/10/02 00:25:09;;;;;;;10.30;5.32;;;;;;;;;;6286505;22;20015;-81
2023/10/02 00:27:35;;;;;;;13.95;6.57;;;;;;;;;;6314696;22;20008;-81
2023/10/02 00:30:02;;;;;;;10.55;5.65;;;;;;;;;;6313571;22;20086;-81
2023/10/02 00:32:29;;;;;;;10.88;5.63;;;;;;;;;;6314569;22;20015;-81
2023/10/02 00:34:58;;;;;;;11.38;5.50;;;;;;;;;;6315607;22;20012;-81
2023/10/02 00:37:43;;;;;;;10.02;5.65;;;;;;;;;;6314246;22;20011;-81
2023/10/02 00:40:10;;;;;;;12.70;6.00;;;;;;;;;;6315084;22;20019;-81
2023/10/02 00:42:36;;;;;;;10.57;5.70;;;;;;;;;;6287365;22;20077;-81
2023/10/02 00:45:03;;;;;;;10.38;5.60;;;;;;;;;;6288293;22;20375;-81
2023/10/02 00:47:49;;;;;;;13.45;5.65;;;;;;;;;;6287028;22;20023;-81
2023/10/02 00:50:18;;;;;;;11.25;5.50;;;;;;;;;;6315492;22;20011;-81
2023/10/02 00:52:52;;;;;;;12.35;5.90;;;;;;;;;;6262885;22;20037;-81
2023/10/02 00:55:20;;;;;;;12.73;6.38;;;;;;;;;;6316407;22;20032;-81
2023/10/02 00:57:47;;;;;;;11.20;5.63;;;;;;;;;;6316758;22;20011;-81
2023/10/02 01:00:21;;;;;;;12.00;5.57;;;;;;;;;;6285828;22;20015;-81
2023/10/02 01:02:48;;;;;;;13.18;5.28;;;;;;;;;;6313637;22;20018;-81
2023/10/02 01:05:21;;;;;;;13.32;6.30;;;;;;;;;;6317248;22;20033;-81
2023/10/02 01:07:53;;;;;;;15.43;7.22;;;;;;;;;;6318837;22;20011;-81
2023/10/02 01:10:19;;;;;;;11.25;6.68;;;;;;;;;;6318185;22;20016;-81
2023/10/02 01:13:01;;;;;;;12.32;6.60;;;;;;;;;;6287406;22;20019;-81
2023/10/02 01:15:27;;;;;;;14.50;6.43;;;;;;;;;;6286368;22;20038;-81
2023/10/02 01:17:54;;;;;;;11.43;5.88;;;;;;;;;;6313844;22;20011;-81
2023/10/02 01:20:39;;;;;;;11.98;5.88;;;;;;;;;;6313402;22;20045;-81
2023/10/02 01:23:15;;;;;;;14.45;6.47;;;;;;;;;;6312663;22;20015;-81
2023/10/02 01:25:45;;;;;;;14.52;6.47;;;;;;;;;;6314055;22;20037;-81
2023/10/02 01:28:13;;;;;;;10.38;5.80;;;;;;;;;;6284350;22;20045;-81
2023/10/02 01:30:40;;;;;;;11.80;6.00;;;;;;;;;;6284388;22;20019;-81
2023/10/02 01:33:06;;;;;;;14.43;6.03;;;;;;;;;;6284272;22;20102;-81
2023/10/02 01:35:36;;;;;;;14.65;7.15;;;;;;;;;;6284958;22;20016;-81
2023/10/02 01:38:06;;;;;;;11.98;5.70;;;;;;;;;;6312903;22;20011;-81
2023/10/02 01:40:36;;;;;;;12.90;6.03;;;;;;;;;;6313601;22;20018;-81
2023/10/02 01:43:12;;;;;;;14.00;6.35;;;;;;;;;;6286228;22;20375;-81
2023/10/02 01:45:42;;;;;;;11.90;5.40;;;;;;;;;;6261346;22;20019;-81
2023/10/02 01:48:08;;;;;;;;;;;;;;;;;;6285106;22;20019;-81
2023/10/02 01:50:37;;;;;;;10.05;5.15;;;;;;;;;;6284475;22;19938;-81
2023/10/02 01:53:06;;;;;;;12.80;6.13;;;;;;;;;;6312414;22;20317;-81
2023/10/02 01:55:35;;;;;;;12.65;5.78;;;;;;;;;;6285288;22;20026;-81
2023/10/02 01:58:16;;;;;;;15.25;6.07;;;;;;;;;;6310761;22;20017;-81
2023/10/02 02:00:45;;;;;;;10.85;6.20;;;;;;;;;;6316358;22;20021;-81
2023/10/02 02:03:14;;;;;;;12.23;5.35;;;;;;;;;;6287124;22;20015;-81
2023/10/02 02:05:44;;;;;;;14.73;7.00;;;;;;;;;;6315243;22;20022;-81
2023/10/02 02:08:22;;;;;;;12.55;5.85;;;;;;;;;;6285874;22;20027;-81
2023/10/02 02:10:53;;;;;;;12.43;6.05;;;;;;;;;;6286577;22;20112;-81
2023/10/02 02:13:20;;;;;;;14.13;6.30;;;;;;;;;;6286500;22;20041;-81
2023/10/02 02:16:07;;;;;;;16.90;6.85;;;;;;;;;;6312734;22;20383;-81
2023/10/02 02:18:33;;;;;;;14.55;6.68;;;;;;;;;;6311053;22;20022;-81
2023/10/02 02:20:59;;;;;;;13.07;6.20;;;;;;;;;;6314293;22;20015;-81
2023/10/02 02:23:30;;;;;;;11.35;5.63;;;;;;;;;;6285564;22;20452;-81
2023/10/02 02:25:56;;;;;;;12.75;5.70;;;;;;;;;;6286446;22;20063;-81
2023/10/02 02:28:22;;;;;;;11.95;6.63;;;;;;;;;;6314571;22;20018;-81
2023/10/02 02:30:48;;;;;;;15.05;6.35;;;;;;;;;;6315551;22;20011;-81
2023/10/02 02:33:15;;;;;;;11.70;6.25;;;;;;;;;;6314256;22;20019;-81
2023/10/02 02:35:44;;;;;;;13.57;6.47;;;;;;;;;;6316478;22;20046;-81
2023/10/02 02:38:16;;;;;;;12.85;6.32;;;;;;;;;;6315858;22;20015;-81
2023/10/02 02:40:42;;;;;;;14.70;6.70;;;;;;;;;;6315617;22;20031;-81
2023/10/02 02:43:13;;;;;;;14.98;7.75;;;;;;;;;;6314035;22;20344;-81
2023/10/02 02:45:39;;;;;;;12.05;5.93;;;;;;;;;;6287870;22;20022;-81
2023/10/02 02:48:10;;;;;;;12.35;6.30;;;;;;;;;;6315454;22;20046;-81
2023/10/02 02:50:40;;;;;;;12.43;6.50;;;;;;;;;;6315503;22;20015;-81
2023/10/02 02:53:16;;;;;;;15.65;7.28;;;;;;;;;;6297487;22;20015;-81
2023/10/02 02:55:43;;;;;;;14.38;6.10;;;;;;;;;;6266190;22;20025;-81
2023/10/02 02:58:09;;;;;;;14.50;6.80;;;;;;;;;;6281238;22;20019;-81
2023/10/02 03:00:35;;;;;;;11.18;6.32;;;;;;;;;;6280786;22;20026;-81
2023/10/02 03:03:02;;;;;;;14.75;6.85;;;;;;;;;;6281806;22;20015;-81
2023/10/02 03:05:38;;;;;;;14.18;6.30;;;;;;;;;;6283104;22;20446;-82
2023/10/02 03:08:05;;;;;;;10.48;6.03;;;;;;;;;;6283015;22;20015;-81
2023/10/02 03:10:36;;;;;;;14.00;6.60;;;;;;;;;;6312790;22;20018;-81
2023/10/02 03:13:15;;;;;;;12.85;6.70;;;;;;;;;;6315029;22;20030;-81
2023/10/02 03:15:48;;;;;;;12.88;6.30;;;;;;;;;;6287742;22;20023;-81
2023/10/02 03:18:30;;;;;;;12.23;7.13;;;;;;;;;;6314265;22;20382;-81
2023/10/02 03:20:58;;;;;;;16.13;6.78;;;;;;;;;;6314559;22;20011;-81
2023/10/02 03:23:28;;;;;;;11.73;5.88;;;;;;;;;;6314956;22;20015;-81
2023/10/02 03:25:56;;;;;;;12.55;6.15;;;;;;;;;;6287323;22;20015;-81
2023/10/02 03:28:28;;;;;;;12.00;5.38;;;;;;;;;;6287011;22;20068;-81
2023/10/02 03:30:57;;;;;;;10.65;5.78;;;;;;;;;;6286495;22;20019;-81
2023/10/02 03:33:25;;;;;;;13.55;5.90;;;;;;;;;;6261610;22;20019;-81
2023/10/02 03:35:58;;;;;;;12.45;6.10;;;;;;;;;;6261058;22;20015;-81
2023/10/02 03:38:33;;;;;;;13.63;6.22;;;;;;;;;;6286293;22;20022;-81
2023/10/02 03:41:01;;;;;;;14.10;6.10;;;;;;;;;;6285990;22;20064;-81
2023/10/02 03:43:34;;;;;;;14.15;6.65;;;;;;;;;;6286188;22;20015;-81
2023/10/02 03:46:04;;;;;;;13.30;6.55;;;;;;;;;;6285490;22;20011;-81
2023/10/02 03:48:31;;;;;;;13.45;6.60;;;;;;;;;;6314832;22;20015;-81
2023/10/02 03:50:57;;;;;;;12.30;5.95;;;;;;;;;;6313415;22;20059;-82
2023/10/02 03:53:30;;;;;;;13.05;6.50;;;;;;;;;;6286535;22;20030;-81
2023/10/02 03:56:33;;;;;;;12.23;6.43;;;;;;;;;;6286703;22;20046;-81
2023/10/02 03:58:45;;;;;;;14.40;6.88;;;;;;;;;;6314259;22;20023;-81
2023/10/02 04:01:15;;;;;;;13.38;6.60;;;;;;;;;;6312832;22;20067;-81
2023/10/02 04:03:56;;;;;;;11.15;6.07;;;;;;;;;;6287939;22;20015;-81
2023/10/02 04:06:33;;;;;;;12.75;6.07;;;;;;;;;;6313233;22;20377;-81
2023/10/02 04:09:10;;;;;;;12.80;6.70;;;;;;;;;;6286172;22;20015;-81
2023/10/02 04:11:38;;;;;;;12.35;6.60;;;;;;;;;;6287411;22;20340;-81
2023/10/02 04:14:17;;;;;;;11.77;6.15;;;;;;;;;;6285640;22;20015;-81
2023/10/02 04:16:43;;;;;;;12.65;6.68;;;;;;;;;;6288116;22;20531;-82
2023/10/02 04:19:09;;;;;;;13.80;6.43;;;;;;;;;;6286803;22;20015;-81
2023/10/02 04:21:37;;;;;;;11.50;5.47;;;;;;;;;;6288193;22;20466;-81
2023/10/02 04:24:09;;;;;;;13.20;6.25;;;;;;;;;;6287103;22;20097;-81
2023/10/02 04:26:36;;;;;;;10.60;5.72;;;;;;;;;;6289620;22;20026;-81
2023/10/02 04:32:04;;;;;;;12.55;6.57;;;;;;;;;;6289580;22;20352;-81
2023/10/02 04:34:31;;;;;;;11.90;6.05;;;;;;;;;;6285577;22;20018;-81
2023/10/02 04:36:57;;;;;;;12.70;6.68;;;;;;;;;;6312792;22;20033;-81
2023/10/02 04:42:15;;;;;;;11.68;7.13;;;;;;;;;;6313887;22;20023;-81
2023/10/02 04:44:45;;;;;;;14.68;7.10;;;;;;;;;;6313946;22;20344;-81
2023/10/02 04:47:17;;;;;;;14.93;6.53;;;;;;;;;;6313855;22;20015;-81
2023/10/02 04:52:57;;;;;;;12.40;6.13;;;;;;;;;;6312154;22;20026;-81
2023/10/02 04:55:25;;;;;;;13.20;6.93;;;;;;;;;;6311423;22;20011;-81
2023/10/02 04:58:19;;;;;;;13.10;6.43;;;;;;;;;;6285033;22;20011;-81
2023/10/02 05:03:28;;;;;;;12.50;6.10;;;;;;;;;;6314067;22;20027;-81
2023/10/02 05:05:54;;;;;;;12.15;7.05;;;;;;;;;;6284999;22;20015;-81
2023/10/02 05:08:33;;;;;;;12.48;5.93;;;;;;;;;;6285181;22;20061;-81
2023/10/02 05:11:11;;;;;;;12.50;5.95;;;;;;;;;;6285836;22;20007;-81
2023/10/02 05:13:45;;;;;;;12.18;6.00;;;;;;;;;;6312866;22;20011;-81
2023/10/02 05:16:12;;;;;;;13.75;6.53;;;;;;;;;;6314013;22;20378;-81
2023/10/02 05:18:47;;;;;;;13.05;6.65;;;;;;;;;;6313256;22;20015;-81
2023/10/02 05:21:17;;;;;;;14.45;5.75;;;;;;;;;;6283187;22;20103;-80
2023/10/02 05:23:56;;;;;;;13.82;6.50;;;;;;;;;;6284624;22;20487;-80
2023/10/02 05:26:36;;;;;;;12.20;6.82;;;;;;;;;;6317837;22;20046;-81
2023/10/02 05:29:05;;;;;;;12.68;6.15;;;;;;;;;;6319127;22;20026;-81
2023/10/02 05:31:35;;;;;;;11.95;6.32;;;;;;;;;;6316673;22;20015;-82
2023/10/02 05:34:06;;;;;;;16.23;6.22;;;;;;;;;;6257699;22;20068;-81
2023/10/02 05:36:32;;;;;;;12.07;6.38;;;;;;;;;;6285237;22;20030;-81
2023/10/02 05:39:28;;;;;;;12.88;6.40;;;;;;;;;;6310214;22;20015;-81
2023/10/02 05:42:05;;;;;;;14.15;6.60;;;;;;;;;;6282792;22;20086;-81
2023/10/02 05:44:31;;;;;;;12.65;6.22;;;;;;;;;;6310303;22;20019;-81
2023/10/02 05:47:07;;;;;;;11.32;6.20;;;;;;;;;;6257008;22;20067;-81
2023/10/02 05:49:36;;;;;;;14.05;7.43;;;;;;;;;;6282835;22;20072;-81
2023/10/02 05:52:02;;;;;;;12.00;6.00;;;;;;;;;;6284467;22;20022;-81
2023/10/02 05:54:29;;;;;;;13.02;6.25;;;;;;;;;;6258732;22;20015;-81
2023/10/02 05:57:32;;;;;;;13.70;6.75;;;;;;;;;;6312380;22;20011;-81
2023/10/02 05:59:58;;;;;;;12.57;6.95;;;;;;;;;;6279298;22;20017;-82
2023/10/02 06:02:25;;;;;;;15.05;6.57;;;;;;;;;;6285710;22;20010;-81
2023/10/02 06:05:07;;;;;;;15.32;6.78;;;;;;;;;;6284068;22;20016;-81
2023/10/02 06:07:51;;;;;;;;;;;;;;;;;;6284911;22;20015;-81
2023/10/02 06:10:26;;;;;;;9.95;5.10;;;;;;;;;;6284512;22;19911;-81
2023/10/02 06:13:05;;;;;;;13.13;5.45;;;;;;;;;;6311484;22;20046;-81
2023/10/02 06:15:48;;;;;;;11.35;6.28;;;;;;;;;;6311258;22;20055;-81
2023/10/02 06:18:24;;;;;;;11.95;6.05;;;;;;;;;;6283967;22;20012;-82
2023/10/02 06:21:03;;;;;;;12.77;6.45;;;;;;;;;;6282355;22;20027;-81
2023/10/02 06:23:37;;;;;;;12.02;6.47;;;;;;;;;;6283028;22;20090;-81
2023/10/02 06:26:03;;;;;;;14.23;6.30;;;;;;;;;;6309322;22;20042;-81
2023/10/02 06:28:30;;;;;;;15.45;7.55;;;;;;;;;;6281855;22;20016;-84
2023/10/02 06:30:56;;;;;;;12.75;6.38;;;;;;;;;;6274283;22;20015;-85
2023/10/02 06:33:22;;;;;;;16.08;6.70;;;;;;;;;;6276554;22;20553;-86
2023/10/02 06:35:57;;;;;;;11.43;6.10;;;;;;;;;;6279612;22;20015;-85
2023/10/02 06:38:29;;;;;;;10.43;6.32;;;;;;;;;;6282075;22;20018;-85
2023/10/02 06:40:56;;;;;;;13.68;6.93;;;;;;;;;;6308248;22;20363;-84
2023/10/02 06:43:29;;;;;;;14.07;6.53;;;;;;;;;;6281198;22;20022;-84
2023/10/02 06:46:06;;;;;;;11.95;6.40;;;;;;;;;;6305563;22;20035;-84
2023/10/02 06:48:34;;;;;;;12.20;6.70;;;;;;;;;;6281676;22;20020;-84
2023/10/02 06:51:01;;;;;;;12.75;6.63;;;;;;;;;;6280206;22;20011;-84
2023/10/02 06:53:27;;;;;;;12.80;6.03;;;;;;;;;;6280678;22;20022;-84
2023/10/02 06:55:58;;;;;;;14.25;6.75;;;;;;;;;;6282481;22;20022;-84
2023/10/02 06:58:26;;;;;;;14.48;6.75;;;;;;;;;;6310119;22;20072;-85
2023/10/02 07:00:54;;;;;;;14.88;6.38;;;;;;;;;;6281118;22;20117;-83
2023/10/02 07:03:21;;;;;;;12.27;6.72;;;;;;;;;;6309640;22;20022;-83
2023/10/02 07:05:48;;;;;;;11.43;6.03;;;;;;;;;;6282786;22;20487;-83
2023/10/02 07:08:26;;;;;;;11.88;6.32;;;;;;;;;;6309052;22;20019;-83
2023/10/02 07:10:53;;;;;;;12.57;7.35;;;;;;;;;;6281026;22;20044;-84
2023/10/02 07:13:20;;;;;;;13.43;6.60;;;;;;;;;;6256128;22;20011;-84
2023/10/02 07:15:55;;;;;;;13.30;7.13;;;;;;;;;;6308493;22;20037;-84
2023/10/02 07:18:37;;;;;;;13.98;6.60;;;;;;;;;;6282581;22;20019;-83
2023/10/02 07:21:09;;;;;;;15.73;7.07;;;;;;;;;;6282912;22;20019;-84
2023/10/02 07:23:38;;;;;;;14.95;6.97;;;;;;;;;;6310350;22;20035;-83
2023/10/02 07:26:05;;;;;;;17.58;7.35;;;;;;;;;;6280037;22;20466;-83
2023/10/02 07:28:31;;;;;;;13.80;7.35;;;;;;;;;;6308440;22;20341;-84
2023/10/02 07:30:59;;;;;;;14.63;6.95;;;;;;;;;;6307957;22;20100;-83
2023/10/02 07:33:25;;;;;;;12.52;6.75;;;;;;;;;;6309319;22;20011;-82
2023/10/02 07:35:54;;;;;;;14.30;6.78;;;;;;;;;;6310409;22;20011;-83
2023/10/02 07:38:30;;;;;;;13.68;6.72;;;;;;;;;;6282111;22;20011;-86
2023/10/02 07:41:08;;;;;;;15.20;7.32;;;;;;;;;;6280216;22;20026;-85
2023/10/02 07:43:34;;;;;;;15.23;7.53;;;;;;;;;;6281686;22;20019;-84
2023/10/02 07:46:18;;;;;;;17.33;7.28;;;;;;;;;;6283241;22;20050;-82
2023/10/02 07:48:57;;;;;;;12.75;6.60;;;;;;;;;;6286018;22;20015;-82
2023/10/02 07:51:30;;;;;;;15.07;7.57;;;;;;;;;;6284991;22;20016;-83
2023/10/02 07:53:58;;;;;;;15.35;7.35;;;;;;;;;;6311578;22;20011;-83
2023/10/02 07:56:25;;;;;;;17.63;7.55;;;;;;;;;;6285120;22;20019;-82
2023/10/02 07:58:55;;;;;;;19.30;7.72;;;;;;;;;;6284038;22;20341;-82
2023/10/02 08:01:27;;;;;;;17.75;7.55;;;;;;;;;;6285096;22;20136;-83
2023/10/02 08:03:55;;;;;;;11.98;7.05;;;;;;;;;;6284336;22;20599;-83
2023/10/02 08:06:22;;;;;;;12.95;6.95;;;;;;;;;;6312744;22;20011;-83
2023/10/02 08:09:24;;;;;;;15.20;7.70;;;;;;;;;;6285246;22;21039;-83
2023/10/02 08:11:34;;;;;;;14.10;6.95;;;;;;;;;;6312471;22;20456;-82
2023/10/02 08:14:01;;;;;;;14.40;7.47;;;;;;;;;;6283671;22;20007;-83
2023/10/02 08:16:27;;;;;;;16.13;6.30;;;;;;;;;;6284126;22;20026;-83
2023/10/02 08:18:58;;;;;;;16.33;7.13;;;;;;;;;;6284086;22;20011;-83
2023/10/02 08:21:45;;;;;;;13.63;6.93;;;;;;;;;;6283946;22;20022;-83
2023/10/02 08:24:11;;;;;;;16.73;7.13;;;;;;;;;;6282697;22;20026;-83
2023/10/02 08:26:38;;;;;;;19.23;8.13;;;;;;;;;;6282893;22;20019;-83
2023/10/02 08:29:08;;;;;;;14.38;6.72;;;;;;;;;;6310947;22;20011;-83
2023/10/02 08:31:35;;;;;;;12.68;6.78;;;;;;;;;;6283102;22;20021;-83
2023/10/02 08:34:05;;;;;;;17.30;8.18;;;;;;;;;;6310652;22;20078;-82
2023/10/02 08:36:32;;;;;;;13.60;6.10;;;;;;;;;;6310922;22;20011;-82
2023/10/02 08:38:59;;;;;;;15.48;8.13;;;;;;;;;;6282748;22;20011;-83
2023/10/02 08:41:27;;;;;;;14.63;7.50;;;;;;;;;;6282203;22;20436;-83
2023/10/02 08:43:54;;;;;;;17.77;7.75;;;;;;;;;;6309822;22;20015;-83
2023/10/02 08:46:23;;;;;;;15.10;7.18;;;;;;;;;;6310329;22;20019;-83
2023/10/02 08:48:54;;;;;;;13.90;7.18;;;;;;;;;;6309767;22;20021;-83
2023/10/02 08:51:29;;;;;;;16.10;7.43;;;;;;;;;;6282705;22;20460;-83
2023/10/02 08:53:58;;;;;;;15.07;6.88;;;;;;;;;;6257407;22;20016;-83
2023/10/02 08:56:29;;;;;;;16.52;7.65;;;;;;;;;;6283097;22;20058;-83
2023/10/02 08:59:18;;;;;;;16.85;8.15;;;;;;;;;;6280498;22;20016;-83
2023/10/02 09:01:47;;;;;;;14.95;7.22;;;;;;;;;;6280590;22;20090;-83
2023/10/02 09:04:22;;;;;;;16.88;8.05;;;;;;;;;;6307827;22;20021;-83
2023/10/02 09:06:49;;;;;;;17.42;7.55;;;;;;;;;;6310180;22;20012;-83
2023/10/02 09:11:53;;;;;;;18.05;8.32;;;;;;;;;;6308480;22;20372;-83
2023/10/02 09:16:46;;;;;;;17.67;8.15;;;;;;;;;;6281116;22;20409;-83
2023/10/02 09:19:31;;;;;;;15.63;7.53;;;;;;;;;;6280912;22;20031;-83
2023/10/02 09:22:06;;;;;;;20.55;8.98;;;;;;;;;;6283847;22;20015;-83
2023/10/02 09:24:40;;;;;;;21.00;8.60;;;;;;;;;;6280156;22;20502;-83
2023/10/02 09:27:30;;;;;;;21.63;9.02;;;;;;;;;;6278849;22;20072;-83
2023/10/02 09:30:21;;;;;;;20.58;10.82;;;;;;;;;;6307898;22;20011;-83
2023/10/02 09:32:53;;;;;;;24.15;11.48;;;;;;;;;;6283877;22;20015;-84
2023/10/02 09:38:10;;;;;;;22.02;10.98;;;;;;;;;;6315174;22;20100;-83
2023/10/02 09:43:23;;;;;;;20.27;9.50;;;;;;;;;;6322749;22;20063;-83
2023/10/02 09:45:50;;;;;;;24.73;10.88;;;;;;;;;;6319990;22;20030;-83
2023/10/02 09:51:06;;;;;;;25.73;11.20;;;;;;;;;;6288539;22;20015;-83
2023/10/02 09:53:38;;;;;;;22.85;10.95;;;;;;;;;;6317646;22;20019;-83
2023/10/02 09:56:06;;;;;;;20.95;10.13;;;;;;;;;;6290004;22;20064;-83
2023/10/02 09:58:37;;;;;;;23.17;10.43;;;;;;;;;;6313396;22;20018;-82
2023/10/02 10:01:33;;;;;;;23.23;10.60;;;;;;;;;;6312182;22;20026;-83
2023/10/02 10:03:59;;;;;;;20.45;9.48;;;;;;;;;;6310824;22;20068;-83
2023/10/02 10:06:28;;;;;;;18.02;8.63;;;;;;;;;;6284063;22;20020;-83
2023/10/02 10:11:39;;;;;;;17.98;9.13;;;;;;;;;;6311681;22;20015;-83
2023/10/02 10:14:35;;;;;;;23.58;10.38;;;;;;;;;;6283337;22;20016;-82
2023/10/02 10:17:15;;;;;;;21.20;9.88;;;;;;;;;;6312198;22;20113;-83
2023/10/02 10:19:41;;;;;;;20.55;9.82;;;;;;;;;;6314215;22;20011;-83
2023/10/02 10:22:27;;;;;;;23.25;10.15;;;;;;;;;;6312977;22;20030;-83
2023/10/02 10:24:56;;;;;;;20.73;10.75;;;;;;;;;;6285865;22;20015;-83
2023/10/02 10:27:41;;;;;;;25.08;10.63;;;;;;;;;;6260530;22;20015;-83
2023/10/02 10:30:27;;;;;;;21.73;11.00;;;;;;;;;;6286070;22;20050;-83
2023/10/02 10:35:34;;;;;;;21.40;9.25;;;;;;;;;;6328352;22;20023;-83
2023/10/02 10:38:04;;;;;;;22.70;10.02;;;;;;;;;;6284518;22;20016;-83
2023/10/02 10:40:46;;;;;;;22.25;9.50;;;;;;;;;;6286270;22;20904;-83
2023/10/02 10:43:14;;;;;;;25.83;10.95;;;;;;;;;;6284380;22;20085;-83
2023/10/02 10:45:40;;;;;;;21.60;10.65;;;;;;;;;;6285802;22;20043;-83
2023/10/02 10:48:19;;;;;;;20.80;9.43;;;;;;;;;;6284084;22;20155;-82
2023/10/02 10:50:59;;;;;;;21.40;9.85;;;;;;;;;;6283789;22;20021;-83
2023/10/02 10:53:26;;;;;;;21.10;9.68;;;;;;;;;;6284132;22;20015;-82
2023/10/02 10:55:55;;;;;;;23.15;9.75;;;;;;;;;;6258966;22;20037;-83
2023/10/02 10:58:34;;;;;;;20.17;9.02;;;;;;;;;;6283018;22;20064;-82
2023/10/02 11:01:02;;;;;;;17.67;9.40;;;;;;;;;;6257379;22;20018;-83
2023/10/02 11:03:30;;;;;;;22.88;10.65;;;;;;;;;;6284719;22;20038;-84
2023/10/02 11:06:03;;;;;;;20.65;9.60;;;;;;;;;;6310475;22;20510;-83
2023/10/02 11:08:30;;;;;;;19.88;10.30;;;;;;;;;;6312592;22;20018;-83
2023/10/02 11:11:18;;;;;;;18.80;9.07;;;;;;;;;;6314668;22;20015;-83
2023/10/02 11:13:51;;;;;;;20.15;9.80;;;;;;;;;;6313072;22;20016;-83
2023/10/02 11:16:38;;;;;;;20.83;10.40;;;;;;;;;;6313575;22;20018;-82
2023/10/02 11:19:34;;;;;;;20.70;10.13;;;;;;;;;;6311252;22;20050;-83
2023/10/02 11:22:01;;;;;;;19.42;9.38;;;;;;;;;;6280200;22;20022;-83
2023/10/02 11:24:27;;;;;;;17.15;9.48;;;;;;;;;;6277913;22;20514;-84
2023/10/02 11:26:54;;;;;;;18.35;10.07;;;;;;;;;;6277172;22;20101;-83
2023/10/02 11:29:20;;;;;;;21.05;10.02;;;;;;;;;;6278324;22;20034;-83
2023/10/02 11:32:19;;;;;;;23.30;10.55;;;;;;;;;;6309398;22;20121;-83
2023/10/02 11:35:03;;;;;;;20.30;9.75;;;;;;;;;;6308783;22;20033;-85
2023/10/02 11:37:32;;;;;;;21.08;9.95;;;;;;;;;;6309127;22;20011;-86
2023/10/02 11:39:58;;;;;;;23.75;10.18;;;;;;;;;;6282098;22;20050;-86
2023/10/02 11:42:24;;;;;;;18.90;9.43;;;;;;;;;;6254967;22;20015;-84
2023/10/02 11:44:50;;;;;;;17.80;9.40;;;;;;;;;;6280022;22;20011;-84
2023/10/02 11:47:16;;;;;;;22.05;9.25;;;;;;;;;;6278034;22;20038;-85
2023/10/02 11:49:42;;;;;;;21.20;10.02;;;;;;;;;;6306379;22;20046;-84
2023/10/02 11:52:09;;;;;;;19.42;10.60;;;;;;;;;;6278542;22;20357;-84
2023/10/02 11:54:39;;;;;;;23.90;10.57;;;;;;;;;;6306235;22;20459;-84
2023/10/02 11:57:09;;;;;;;18.27;10.13;;;;;;;;;;6306431;22;20018;-88
2023/10/02 11:59:42;;;;;;;18.42;10.65;;;;;;;;;;6280395;22;20462;-87
2023/10/02 12:02:11;;;;;;;18.17;9.70;;;;;;;;;;6254461;22;20073;-87
2023/10/02 12:04:38;;;;;;;20.23;10.27;;;;;;;;;;6280379;22;20037;-87
2023/10/02 12:07:04;;;;;;;21.60;10.07;;;;;;;;;;6254359;22;20038;-87
2023/10/02 12:09:32;;;;;;;19.08;9.05;;;;;;;;;;6256306;22;20443;-87
2023/10/02 12:11:59;;;;;;;19.13;9.60;;;;;;;;;;6255820;22;20386;-86
2023/10/02 12:14:28;;;;;;;22.08;9.32;;;;;;;;;;6279784;22;20012;-87
2023/10/02 12:16:57;;;;;;;20.33;9.63;;;;;;;;;;6252803;22;20015;-86
2023/10/02 12:19:24;;;;;;;18.52;8.82;;;;;;;;;;6253322;22;20089;-86
2023/10/02 12:21:51;;;;;;;17.85;8.32;;;;;;;;;;6279082;22;20482;-86
2023/10/02 12:24:17;;;;;;;17.98;8.80;;;;;;;;;;6279878;22;20015;-87
2023/10/02 12:26:43;;;;;;;15.48;8.15;;;;;;;;;;6254471;22;20007;-86
2023/10/02 12:29:10;;;;;;;16.08;8.68;;;;;;;;;;6253256;22;20437;-86
2023/10/02 12:31:36;;;;;;;16.25;7.05;;;;;;;;;;6253855;22;20011;-86
2023/10/02 12:34:03;;;;;;;18.98;10.38;;;;;;;;;;6278972;22;20046;-86
2023/10/02 12:36:29;;;;;;;15.23;7.65;;;;;;;;;;6280072;22;20061;-86
2023/10/02 12:38:55;;;;;;;15.52;8.10;;;;;;;;;;6255300;22;20431;-87
2023/10/02 12:41:22;;;;;;;14.07;6.15;;;;;;;;;;6278681;22;20395;-86
2023/10/02 12:43:58;;;;;;;11.90;5.65;;;;;;;;;;6279591;22;20051;-86
2023/10/02 12:46:26;;;;;;;11.85;6.43;;;;;;;;;;6253048;22;20026;-86
2023/10/02 12:48:55;;;;;;;15.30;7.40;;;;;;;;;;6278645;22;20015;-85
2023/10/02 12:51:39;;;;;;;13.30;6.22;;;;;;;;;;6303587;22;20016;-86
2023/10/02 12:54:05;;;;;;;14.07;6.07;;;;;;;;;;6278041;22;20015;-86
2023/10/02 12:56:31;;;;;;;12.82;6.57;;;;;;;;;;6278602;22;20015;-86
2023/10/02 12:58:57;;;;;;;15.27;6.63;;;;;;;;;;6278851;22;20109;-86
2023/10/02 13:01:29;;;;;;;11.30;5.57;;;;;;;;;;6254802;22;20069;-87
2023/10/02 13:03:56;;;;;;;10.98;5.32;;;;;;;;;;6279363;22;20520;-87
2023/10/02 13:06:24;;;;;;;14.40;5.85;;;;;;;;;;6251631;22;20015;-86
2023/10/02 13:08:50;;;;;;;12.18;6.00;;;;;;;;;;6277661;22;20018;-86
2023/10/02 13:11:19;;;;;;;11.90;5.78;;;;;;;;;;6277782;22;20019;-86
2023/10/02 13:13:46;;;;;;;14.00;6.78;;;;;;;;;;6278485;22;20015;-85
2023/10/02 13:16:16;;;;;;;13.30;5.90;;;;;;;;;;6278451;22;20011;-85
2023/10/02 13:18:43;;;;;;;14.25;6.20;;;;;;;;;;6276366;22;20016;-85
2023/10/02 13:21:10;;;;;;;11.98;6.05;;;;;;;;;;6250688;22;20019;-85
2023/10/02 13:23:36;;;;;;;13.38;6.07;;;;;;;;;;6303776;22;20007;-84
2023/10/02 13:26:06;;;;;;;15.68;6.70;;;;;;;;;;6299928;22;20018;-84
2023/10/02 13:28:34;;;;;;;12.98;6.55;;;;;;;;;;6275822;22;20011;-84
2023/10/02 13:31:07;;;;;;;12.63;6.18;;;;;;;;;;6275635;22;20042;-83
2023/10/02 13:33:34;;;;;;;10.63;5.47;;;;;;;;;;6276431;22;20011;-84
2023/10/02 13:36:07;;;;;;;15.32;6.65;;;;;;;;;;6250194;22;20378;-84
2023/10/02 13:38:33;;;;;;;10.23;5.32;;;;;;;;;;6276149;22;20018;-84
2023/10/02 13:41:06;;;;;;;10.10;6.30;;;;;;;;;;6302956;22;20011;-84
2023/10/02 13:43:32;;;;;;;9.40;4.82;;;;;;;;;;6276840;22;20100;-84
2023/10/02 13:45:59;;;;;;;14.32;5.70;;;;;;;;;;6304097;22;20086;-84
2023/10/02 13:48:25;;;;;;;13.07;5.22;;;;;;;;;;6303640;22;20539;-83
2023/10/02 13:50:53;;;;;;;11.13;5.97;;;;;;;;;;6276272;22;20073;-84
2023/10/02 13:53:19;;;;;;;11.88;5.70;;;;;;;;;;6304197;22;20050;-83
2023/10/02 13:55:45;;;;;;;19.77;6.65;;;;;;;;;;6277658;22;20049;-83
2023/10/02 13:58:11;;;;;;;12.27;5.97;;;;;;;;;;6302915;22;20034;-84
2023/10/02 14:00:39;;;;;;;14.73;6.85;;;;;;;;;;6276713;22;20027;-84
2023/10/02 14:03:09;;;;;;;11.38;5.43;;;;;;;;;;6302442;22;20025;-84
2023/10/02 14:05:35;;;;;;;;;;;;;;;;;;6251245;22;20079;-84
2023/10/02 14:08:01;;;;;;;11.02;5.53;;;;;;;;;;6303557;22;20336;-84
2023/10/02 14:10:29;;;;;;;11.57;5.25;;;;;;;;;;6304074;22;20072;-84
2023/10/02 14:12:55;;;;;;;12.40;5.68;;;;;;;;;;6277455;22;20504;-84
2023/10/02 14:15:21;;;;;;;11.55;6.15;;;;;;;;;;6305209;22;20015;-84
2023/10/02 14:17:48;;;;;;;14.93;6.43;;;;;;;;;;6278987;22;20440;-83
2023/10/02 14:20:15;;;;;;;15.52;6.60;;;;;;;;;;6278760;22;20019;-84
2023/10/02 14:22:42;;;;;;;12.65;6.10;;;;;;;;;;6308956;22;20012;-84
2023/10/02 14:25:08;;;;;;;11.48;6.13;;;;;;;;;;6307953;22;20011;-85
2023/10/02 14:27:34;;;;;;;9.90;6.07;;;;;;;;;;6314103;22;20067;-84
2023/10/02 14:30:00;;;;;;;13.93;6.32;;;;;;;;;;6282482;22;20015;-83
2023/10/02 14:32:27;;;;;;;11.38;6.28;;;;;;;;;;6305389;22;20015;-83
2023/10/02 14:34:54;;;;;;;8.65;4.93;;;;;;;;;;6306599;22;20038;-83
2023/10/02 14:37:20;;;;;;;11.55;5.85;;;;;;;;;;6309863;22;20068;-84
2023/10/02 14:39:46;;;;;;;11.48;6.03;;;;;;;;;;6257648;22;20019;-83
2023/10/02 14:42:13;;;;;;;14.15;6.00;;;;;;;;;;6308944;22;20017;-84
2023/10/02 14:44:39;;;;;;;12.88;5.90;;;;;;;;;;6313770;22;20015;-83
2023/10/02 14:47:07;;;;;;;9.73;5.18;;;;;;;;;;6277508;22;20466;-84
2023/10/02 14:49:33;;;;;;;13.48;6.07;;;;;;;;;;6276120;22;20019;-84
2023/10/02 14:52:00;;;;;;;11.27;5.32;;;;;;;;;;6304021;22;20008;-83
2023/10/02 14:54:28;;;;;;;10.38;5.80;;;;;;;;;;6276044;22;20026;-84
2023/10/02 14:56:54;;;;;;;11.98;5.38;;;;;;;;;;6275633;22;20335;-84
2023/10/02 14:59:20;;;;;;;10.25;5.35;;;;;;;;;;6305307;22;20011;-85
2023/10/02 15:01:46;;;;;;;12.98;4.90;;;;;;;;;;6306794;22;20016;-84
2023/10/02 15:04:13;;;;;;;10.77;4.70;;;;;;;;;;6305803;22;20015;-84
2023/10/02 15:06:40;;;;;;;10.50;4.93;;;;;;;;;;6306156;22;20011;-85
2023/10/02 15:09:09;;;;;;;7.90;4.20;;;;;;;;;;6304619;22;20011;-85
2023/10/02 15:11:36;;;;;;;10.52;5.40;;;;;;;;;;6279468;22;20011;-87
2023/10/02 15:14:03;;;;;;;10.88;4.88;;;;;;;;;;6311510;22;20015;-85
2023/10/02 15:16:29;;;;;;;10.50;4.82;;;;;;;;;;6280354;22;20018;-85
2023/10/02 15:18:55;;;;;;;7.75;4.15;;;;;;;;;;6253985;22;20018;-84
2023/10/02 15:21:21;;;;;;;9.55;4.57;;;;;;;;;;6279870;22;20019;-85
2023/10/02 15:23:48;;;;;;;10.77;5.35;;;;;;;;;;6279307;22;20011;-84
2023/10/02 15:26:15;;;;;;;10.15;4.90;;;;;;;;;;6307450;22;20038;-84